Northern Sonoma County Latest

25 Stations

15 Minute Data | America/Los_Angeles
as of 5/8/26 5:07 PM PDT
Station Date Time Temp (°F) RH (%) Dew Pt (°F) Wind Spd (mph) Wind Dir (°) Wind Gust (mph) Latest Rain (In) Daily Rain (In) Daily Max Temp (°F) Daily Min Temp (°F)
Bavarian Lion EFW 5/8/26 1700 79.4   2.3 - - - - - 0.00 0.00 80.8   3.0 51.7   1.7
Rockpile Lower (Cooley) 5/8/26 1645 75.0   3.2 27   21 38.4   18.3 12.9   8.3 W | 273 18.9   8.7 0.00 0.00 77.6   2.8 46.6   1.5
Rockpile Upper (Cooley) 5/8/26 1700 72.4   1.4 30   23 39.4   16.3 12.8   8.6 NW | 319 20.8   10.7 0.00 0.00 76.7   0.1 43.5   1.3
Lower Dry Creek Valley 5/8/26 1700 77.5   2.9 51   6 58.1   0.3 6.9   0.4 N | 355 12.5   1.5 0.00 0.00 78.7   2.9 49.4   2.4
Geyserville-South (Nervo Station) 5/8/26 1700 77.1   3.0 - - 5.8   0.2 S | 172 9.8   0.0 0.00 0.00 78.8   3.0 47.3   4.2
Franz Valley (Stornetta) 5/8/26 1700 78.5   3.9 47   8 56.5   0.8 2.9   0.4 WSW | 257 6.7   1.7 0.00 0.00 79.1   3.1 51.0   2.5
Geyserville (Ranch 3) 5/8/26 1700 80.4   3.8 48   6 59.0   0.3 5.1   0.5 ESE | 113 10.3   0.5 0.00 0.00 80.8   3.5 47.4   5.4
Geyserville-North (Hoffman) 5/8/26 1700 81.4   4.0 51   6 61.3   0.3 5.0   1.1 SE | 137 9.5   1.8 0.00 0.00 82.2   3.4 46.5   6.4
Knights Valley (Bavarian Lion) 5/8/26 1700 78.1   2.9 48   7 56.8   1.2 4.8   0.1 W | 269 8.6   1.3 0.00 0.00 78.9   2.6 51.0   1.9
HWY 128/Chalk Hill Rd (Landslide) 5/8/26 1700 78.3   3.4 50   7 58.2   0.6 5.2   1.1 SSW | 213 9.7   0.8 0.00 0.00 79.2   3.6 52.5   0.8
Newman Knights Valley 5/8/26 1700 76.7   2.6 65   3 64.1   1.0 5.4   1.1 WSW | 238 10.2   0.2 0.00 0.00 78.0   2.9 52.1   0.3
Jimtown-North (Piccolo Ranch 15) 5/8/26 1700 78.4   2.0 47   5 56.6   1.2 3.8   1.3 S | 189 8.8   2.2 0.00 0.00 80.3   2.6 50.6   1.6
Peterson (Ranch 09) 5/8/26 1700 77.5   2.7 50   5 57.1   0.4 6.8   0.5 S | 186 10.7   0.3 0.00 0.00 79.2   3.0 47.4   4.2
Cloverdale-SE (Ranch 38) 5/8/26 1700 83.3   6.8 33   25 51.5   9.5 3.9   6.3 WSW | 246 11.1   4.0 0.00 0.00 85.0   6.9 47.2   3.7
Geyserville-East (Ranch 40) 5/8/26 1700 76.1   1.7 58   5 60.1   0.8 11.0   1.3 SSW | 194 16.9   0.7 0.00 0.00 79.0   2.3 48.0   2.4
N Chalk Hill Rd (Ranch 63) 5/8/26 1700 76.7   3.3 50   8 56.6   0.9 5.6   0.6 S | 174 8.9   0.9 0.00 0.00 78.0   3.4 50.2   0.6
Cloverdale-East (Ranch 83) 5/8/26 1700 84.1   4.3 - - 6.0   0.2 WNW | 301 10.7   1.5 0.00 0.00 86.4   5.8 45.8   6.6
Crazy Creek Ranch 5/8/26 1700 79.9   4.1 55   8 62.4   0.1 4.2   0.8 S | 184 8.8   1.2 0.00 0.00 80.5   3.7 52.2   0.2
Lytton East (Hill 5) 5/8/26 1700 75.7   3.4 56   6 58.9   0.3 8.7   0.4 S | 178 12.4   3.7 0.00 0.00 77.7   3.6 46.9   4.2
Lytton East (Shop Hill Bottom) 5/8/26 1700 76.5   3.0 54   5 58.5   0.3 6.0   0.8 SSE | 161 9.7   3.2 0.00 0.00 78.1   3.1 46.6   4.6
Lytton West Hill (23PS) 5/8/26 1700 75.9   2.2 53   5 57.7   0.3 7.1   1.1 SSE | 152 13.2   0.6 0.00 0.00 78.0   3.1 50.0   1.4
Lytton West Lower (Lew 6) 5/8/26 1700 76.4   2.6 54   5 58.4   0.1 6.9   0.3 SSE | 160 11.5   2.6 0.00 0.00 78.6   3.4 47.8   3.5
Whitton Ranch (201e) 5/8/26 1700 78.9   2.6 50   5 58.9   0.5 5.0   0.6 S | 178 9.3   0.3 0.00 0.00 80.8   3.0 43.0   9.0
Upper Dry Creek Valley 5/8/26 1700 80.7   3.7 48   6 59.3   0.1 5.5   1.0 SE | 145 10.4   1.3 0.00 0.00 81.5   3.6 46.8   5.1
Big River 5/8/26 1700 75.8   3.3 56   7 58.8   0.4 6.4   0.7 SSE | 168 12.1   0.5 0.00 0.00 77.3   3.0 49.2   2.2
Max     84.1 65 64.1 12.9 - 20.8 0.00 0.00 86.4 52.5
Avg     78.0 49 56.7 6.4 - 11.3 0.00 - - -
Min     72.4 27 38.4 2.9 - 6.7 0.00 0.00 76.7 43.0